createdAt,value
2023-05-12T00:01:03.368Z,16.31
2023-05-12T00:03:31.743Z,16.32
2023-05-12T00:06:03.837Z,16.50
2023-05-12T00:08:32.268Z,16.73
2023-05-12T00:11:01.401Z,16.04
2023-05-12T00:13:29.855Z,16.32
2023-05-12T00:15:59.370Z,16.14
2023-05-12T00:18:28.874Z,16.38
2023-05-12T00:20:57.137Z,16.59
2023-05-12T00:23:25.589Z,16.80
2023-05-12T00:25:53.458Z,16.55
2023-05-12T00:28:21.649Z,17.04
2023-05-12T00:30:49.557Z,16.61
2023-05-12T00:33:17.692Z,16.36
2023-05-12T00:35:45.977Z,16.14
2023-05-12T00:38:14.480Z,16.44
2023-05-12T00:40:42.363Z,16.84
2023-05-12T00:43:11.763Z,16.50
2023-05-12T00:45:39.891Z,16.52
2023-05-12T00:48:08.221Z,16.54
2023-05-12T00:50:36.294Z,16.38
2023-05-12T00:53:06.590Z,16.52
2023-05-12T00:55:34.435Z,16.56
2023-05-12T00:58:02.963Z,16.73
2023-05-12T01:00:30.883Z,16.82
2023-05-12T01:02:59.514Z,16.78
2023-05-12T01:05:36.885Z,16.61
2023-05-12T01:08:06.435Z,16.73
2023-05-12T01:10:35.301Z,16.62
2023-05-12T01:13:03.494Z,16.36
2023-05-12T01:15:33.364Z,16.60
2023-05-12T01:18:03.671Z,16.67
2023-05-12T01:20:33.479Z,16.73
2023-05-12T01:23:02.776Z,16.37
2023-05-12T01:25:33.383Z,16.20
2023-05-12T01:28:05.001Z,16.27
2023-05-12T01:30:34.723Z,16.12
2023-05-12T01:33:04.139Z,16.44
2023-05-12T01:35:32.238Z,16.55
2023-05-12T01:38:02.073Z,16.72
2023-05-12T01:40:34.395Z,16.55
2023-05-12T01:43:03.164Z,16.34
2023-05-12T01:45:33.792Z,16.62
2023-05-12T01:48:02.183Z,16.85
2023-05-12T01:50:30.117Z,16.87
2023-05-12T01:52:58.830Z,16.92
2023-05-12T01:55:26.952Z,16.74
2023-05-12T01:57:57.943Z,16.78
2023-05-12T02:00:26.170Z,16.94
2023-05-12T02:02:57.812Z,16.81
2023-05-12T02:05:26.050Z,16.70
2023-05-12T02:07:54.897Z,16.67
2023-05-12T02:10:22.946Z,16.74
2023-05-12T02:12:51.197Z,16.46
2023-05-12T02:15:19.199Z,16.63
2023-05-12T02:17:50.466Z,16.37
2023-05-12T02:20:19.619Z,16.49
2023-05-12T02:22:48.040Z,16.67
2023-05-12T02:25:15.978Z,16.78
2023-05-12T02:27:49.446Z,16.90
2023-05-12T02:30:19.593Z,16.82
2023-05-12T02:32:48.025Z,16.57
2023-05-12T02:35:16.111Z,16.58
2023-05-12T02:37:44.269Z,16.17
2023-05-12T02:40:12.601Z,16.53
2023-05-12T02:42:41.608Z,16.39
2023-05-12T02:45:10.466Z,16.40
2023-05-12T02:47:38.721Z,16.38
2023-05-12T02:50:08.066Z,16.39
2023-05-12T02:52:36.237Z,16.55
2023-05-12T02:55:04.360Z,16.51
2023-05-12T02:57:34.255Z,16.65
2023-05-12T03:00:06.296Z,16.93
2023-05-12T03:02:39.677Z,16.82
2023-05-12T03:05:09.388Z,16.85
2023-05-12T03:07:38.553Z,16.69
2023-05-12T03:10:07.064Z,16.68
2023-05-12T03:12:35.175Z,16.77
2023-05-12T03:15:04.877Z,16.75
2023-05-12T03:17:33.277Z,16.58
2023-05-12T03:20:01.352Z,16.56
2023-05-12T03:22:30.312Z,16.52
2023-05-12T03:24:59.654Z,16.82
2023-05-12T03:27:29.031Z,16.55
2023-05-12T03:29:57.824Z,16.49
2023-05-12T03:32:26.310Z,16.75
2023-05-12T03:34:54.951Z,16.82
2023-05-12T03:37:23.232Z,16.72
2023-05-12T03:39:51.077Z,16.79
2023-05-12T03:42:19.408Z,16.75
2023-05-12T03:44:48.660Z,16.88
2023-05-12T03:47:16.983Z,16.71
2023-05-12T03:49:45.457Z,16.80
2023-05-12T03:52:14.285Z,16.88
2023-05-12T03:54:42.087Z,16.79
2023-05-12T03:57:10.240Z,16.75
2023-05-12T03:59:38.080Z,16.89
2023-05-12T04:02:07.938Z,16.55
2023-05-12T04:04:35.860Z,16.57
2023-05-12T08:07:52.642Z,19.53
2023-05-12T08:10:20.876Z,19.64
2023-05-12T08:12:48.705Z,19.84
2023-05-12T08:15:16.832Z,19.74
2023-05-12T08:17:44.713Z,19.80
2023-05-12T08:20:13.053Z,19.96
2023-05-12T08:22:41.033Z,20.09
2023-05-12T08:25:12.274Z,19.82
2023-05-12T08:27:40.504Z,19.44
2023-05-12T08:30:09.930Z,19.51
2023-05-12T08:32:37.950Z,19.43
2023-05-12T08:35:06.575Z,19.40
2023-05-12T08:37:35.002Z,19.37
2023-05-12T08:40:04.345Z,19.50
2023-05-12T08:42:42.822Z,19.34
2023-05-12T08:45:13.067Z,19.41
2023-05-12T08:47:42.312Z,19.40
2023-05-12T08:50:11.891Z,19.63
2023-05-12T08:52:40.164Z,19.90
2023-05-12T08:55:10.142Z,19.92
2023-05-12T08:57:39.558Z,19.93
2023-05-12T09:00:10.858Z,20.00
2023-05-12T09:02:52.026Z,19.96
2023-05-12T09:05:23.328Z,19.90
2023-05-12T09:07:54.961Z,19.93
2023-05-12T09:13:04.893Z,20.11
2023-05-12T09:15:40.090Z,19.79
2023-05-12T09:18:08.113Z,19.71
2023-05-12T09:20:36.935Z,20.12
2023-05-12T09:23:23.354Z,19.98
2023-05-12T09:26:04.384Z,20.06
2023-05-12T09:28:36.885Z,20.26
2023-05-12T09:31:22.862Z,20.71
2023-05-12T09:33:52.295Z,21.21
2023-05-12T09:36:22.994Z,21.10
2023-05-12T09:39:08.201Z,21.59
2023-05-12T09:41:37.903Z,20.63
2023-05-12T09:44:07.000Z,20.92
2023-05-12T09:46:36.272Z,20.76
2023-05-12T09:49:04.137Z,20.92
2023-05-12T09:51:32.589Z,21.00
2023-05-12T09:54:01.043Z,20.74
2023-05-12T09:56:31.767Z,20.66
2023-05-12T09:59:02.964Z,20.84
2023-05-12T10:01:31.735Z,21.29
2023-05-12T10:03:59.831Z,21.39
2023-05-12T10:06:30.636Z,21.45
2023-05-12T10:09:20.002Z,21.49
2023-05-12T10:11:53.498Z,22.07
2023-05-12T10:14:23.762Z,22.46
2023-05-12T10:16:53.155Z,22.06
2023-05-12T10:19:23.152Z,21.91
2023-05-12T10:21:51.588Z,21.61
2023-05-12T10:24:22.176Z,21.81
2023-05-12T10:26:51.366Z,22.03
2023-05-12T10:29:19.568Z,21.88
2023-05-12T10:31:49.532Z,22.15
2023-05-12T10:34:19.443Z,22.55
2023-05-12T10:36:50.346Z,22.49
2023-05-12T10:39:18.622Z,22.79
2023-05-12T10:41:46.945Z,22.92
2023-05-12T10:44:14.945Z,22.59
2023-05-12T10:46:43.290Z,22.59
2023-05-12T10:49:13.292Z,22.16
2023-05-12T10:51:44.616Z,21.63
2023-05-12T10:54:20.494Z,22.01
2023-05-12T10:56:49.118Z,21.99
2023-05-12T10:59:17.943Z,22.15
2023-05-12T11:02:05.546Z,22.24
2023-05-12T11:04:50.421Z,21.85
2023-05-12T11:07:28.177Z,21.92
2023-05-12T11:10:01.549Z,21.70
2023-05-12T11:12:33.481Z,21.51
2023-05-12T11:15:02.918Z,21.42
2023-05-12T11:17:32.497Z,21.65
2023-05-12T11:20:03.251Z,21.75
2023-05-12T11:22:31.674Z,21.67
2023-05-12T11:25:10.430Z,21.58
2023-05-12T11:27:42.813Z,21.98
2023-05-12T11:30:11.471Z,22.04
2023-05-12T11:32:39.728Z,22.29
2023-05-12T11:35:17.258Z,22.56
2023-05-12T11:37:46.548Z,22.77
2023-05-12T11:40:20.288Z,22.43
2023-05-12T11:42:53.027Z,23.00
2023-05-12T11:45:22.655Z,22.53
2023-05-12T11:47:51.806Z,23.93
2023-05-12T11:50:24.701Z,23.05
2023-05-12T11:52:53.346Z,23.33
2023-05-12T11:55:24.102Z,23.09
2023-05-12T11:58:04.328Z,23.88
2023-05-12T12:00:34.852Z,23.83
2023-05-12T12:03:15.052Z,23.89
2023-05-12T12:05:46.195Z,24.20
2023-05-12T12:08:16.405Z,24.42
2023-05-12T12:10:46.663Z,24.22
2023-05-12T12:13:25.829Z,24.08
2023-05-12T12:15:53.799Z,24.73
2023-05-12T12:18:22.181Z,24.79
2023-05-12T12:20:50.126Z,24.41
2023-05-12T12:23:18.245Z,24.93
2023-05-12T12:25:45.985Z,25.16
2023-05-12T12:28:14.194Z,25.28
2023-05-12T12:30:41.987Z,24.98
2023-05-12T12:33:09.651Z,25.22
2023-05-12T12:35:37.760Z,25.46
2023-05-12T12:38:05.483Z,25.30
2023-05-12T12:40:33.480Z,25.50
2023-05-12T12:43:01.534Z,25.43
2023-05-12T12:45:29.628Z,25.00
2023-05-12T12:47:57.582Z,25.09
2023-05-12T12:50:27.184Z,25.47
2023-05-12T12:52:55.500Z,25.81
2023-05-12T12:55:24.270Z,25.44
2023-05-12T12:57:52.086Z,25.39
2023-05-12T13:00:21.048Z,25.15
2023-05-12T13:02:49.963Z,24.95
2023-05-12T13:05:18.349Z,24.23
2023-05-12T13:07:47.915Z,24.56
2023-05-12T13:10:16.846Z,25.32
2023-05-12T13:12:44.602Z,25.37
2023-05-12T13:15:12.813Z,24.76
2023-05-12T13:17:40.844Z,24.49
2023-05-12T13:20:09.676Z,24.94
2023-05-12T13:22:37.498Z,25.80
2023-05-12T13:25:08.392Z,25.73
2023-05-12T13:27:36.527Z,25.37
2023-05-12T13:30:07.744Z,24.27
2023-05-12T13:32:35.914Z,24.22
2023-05-12T13:35:04.629Z,23.75
2023-05-12T13:37:32.584Z,23.91
2023-05-12T13:40:00.861Z,24.08
2023-05-12T13:42:28.681Z,24.89
2023-05-12T13:44:56.775Z,26.23
2023-05-12T13:47:24.569Z,26.55
2023-05-12T13:49:52.903Z,26.55
2023-05-12T13:52:21.080Z,27.22
2023-05-12T13:54:49.529Z,27.07
2023-05-12T13:57:17.294Z,26.16
2023-05-12T13:59:45.529Z,26.78
2023-05-12T14:02:14.667Z,26.84
2023-05-12T14:04:43.027Z,26.72
2023-05-12T14:07:11.039Z,26.51
2023-05-12T14:09:39.061Z,26.30
2023-05-12T14:12:07.436Z,26.93
2023-05-12T14:14:35.749Z,26.65
2023-05-12T14:17:03.703Z,26.82
2023-05-12T14:19:31.789Z,25.89
2023-05-12T14:21:59.723Z,26.47
2023-05-12T14:24:29.381Z,25.78
2023-05-12T14:26:57.501Z,26.74
2023-05-12T14:29:25.719Z,26.56
2023-05-12T14:31:53.700Z,26.61
2023-05-12T14:34:23.532Z,26.53
2023-05-12T14:36:51.468Z,26.55
2023-05-12T14:39:19.828Z,26.99
2023-05-12T14:41:47.845Z,26.62
2023-05-12T14:44:16.240Z,26.58
2023-05-12T14:46:44.109Z,27.72
2023-05-12T14:49:14.210Z,26.31
2023-05-12T14:51:43.645Z,25.86
2023-05-12T14:54:24.334Z,25.64
2023-05-12T14:56:53.698Z,24.95
2023-05-12T14:59:21.914Z,25.41
2023-05-12T15:01:49.774Z,26.25
2023-05-12T15:04:18.026Z,25.57
2023-05-12T15:06:46.017Z,25.10
2023-05-12T15:09:14.162Z,25.07
2023-05-12T15:11:45.522Z,25.98
2023-05-12T15:14:13.823Z,26.08
2023-05-12T15:16:42.093Z,26.34
2023-05-12T15:19:10.611Z,26.45
2023-05-12T15:21:38.404Z,25.65
2023-05-12T15:24:06.727Z,25.69
2023-05-12T15:26:35.769Z,25.36
2023-05-12T15:29:06.253Z,25.18
2023-05-12T15:31:35.423Z,25.83
2023-05-12T15:34:03.696Z,25.73
2023-05-12T15:36:32.502Z,25.84
2023-05-12T15:39:01.153Z,26.21
2023-05-12T15:41:29.052Z,26.16
2023-05-12T15:43:57.282Z,26.51
2023-05-12T15:46:25.208Z,26.32
2023-05-12T15:48:53.400Z,25.79
2023-05-12T15:51:21.248Z,25.56
2023-05-12T15:53:51.092Z,25.82
2023-05-12T15:56:18.861Z,25.77
2023-05-12T15:58:47.355Z,25.79
2023-05-12T16:01:15.117Z,26.09
2023-05-12T16:03:43.296Z,25.55
2023-05-12T16:06:11.155Z,25.85
2023-05-12T16:08:39.609Z,25.45
2023-05-12T16:11:07.305Z,25.71
2023-05-12T16:13:35.705Z,25.62
2023-05-12T16:16:03.705Z,25.36
2023-05-12T16:18:32.289Z,24.88
2023-05-12T16:21:02.027Z,25.49
2023-05-12T16:23:30.367Z,24.90
2023-05-12T16:25:59.501Z,24.81
2023-05-12T16:28:28.280Z,25.04
2023-05-12T16:30:56.747Z,25.10
2023-05-12T16:33:24.921Z,24.86
2023-05-12T16:35:52.881Z,24.59
2023-05-12T16:38:21.181Z,24.19
2023-05-12T16:40:49.528Z,24.61
2023-05-12T16:43:17.639Z,24.76
2023-05-12T16:45:45.472Z,24.62
2023-05-12T16:48:13.832Z,24.75
2023-05-12T16:50:41.596Z,24.78
2023-05-12T16:53:09.670Z,25.11
2023-05-12T16:55:37.460Z,24.66
2023-05-12T16:58:05.559Z,24.88
2023-05-12T17:00:33.391Z,24.89
2023-05-12T17:03:03.726Z,24.65
2023-05-12T17:05:32.436Z,24.53
2023-05-12T17:08:00.569Z,24.21
2023-05-12T17:10:28.540Z,24.21
2023-05-12T17:12:56.798Z,24.23
2023-05-12T17:15:24.750Z,24.20
2023-05-12T17:17:52.979Z,24.08
2023-05-12T17:20:22.408Z,23.57
2023-05-12T17:22:52.030Z,23.13
2023-05-12T17:25:20.221Z,23.04
2023-05-12T17:27:49.645Z,23.43
2023-05-12T17:30:18.837Z,22.51
2023-05-12T17:32:46.992Z,22.78
2023-05-12T17:35:15.199Z,22.83
2023-05-12T17:37:43.303Z,22.23
2023-05-12T17:40:17.077Z,22.24
2023-05-12T17:42:45.400Z,21.35
2023-05-12T17:45:16.416Z,21.30
2023-05-12T17:47:45.442Z,21.21
2023-05-12T17:50:15.394Z,21.31
2023-05-12T17:52:43.820Z,20.89
2023-05-12T17:55:11.912Z,21.01
2023-05-12T17:57:40.364Z,21.05
2023-05-12T18:00:10.653Z,21.35
2023-05-12T18:02:45.315Z,21.46
2023-05-12T18:05:13.257Z,21.40
2023-05-12T18:07:41.346Z,20.85
2023-05-12T18:10:10.495Z,20.96
2023-05-12T18:12:39.321Z,21.19
2023-05-12T18:15:07.831Z,21.10
2023-05-12T18:17:36.297Z,20.90
2023-05-12T18:20:04.847Z,20.84
2023-05-12T18:22:32.966Z,20.83
2023-05-12T18:25:00.851Z,20.83
2023-05-12T18:27:28.980Z,20.75
2023-05-12T18:29:56.838Z,20.62
2023-05-12T18:32:26.318Z,20.93
2023-05-12T18:34:54.436Z,20.66
2023-05-12T18:37:23.160Z,20.88
2023-05-12T18:39:51.345Z,20.77
2023-05-12T18:42:19.792Z,20.52
2023-05-12T18:44:47.698Z,20.67
2023-05-12T18:47:15.819Z,20.79
2023-05-12T18:49:43.824Z,20.82
2023-05-12T18:52:12.086Z,20.95
2023-05-12T18:54:40.348Z,20.75
2023-05-12T18:57:08.850Z,20.69
2023-05-12T18:59:36.593Z,20.50
2023-05-12T19:02:05.135Z,20.47
2023-05-12T19:04:32.992Z,20.41
2023-05-12T19:07:01.155Z,20.43
2023-05-12T19:09:28.955Z,20.45
2023-05-12T19:11:57.056Z,20.58
2023-05-12T19:14:24.899Z,20.31
2023-05-12T19:16:53.167Z,20.27
2023-05-12T19:19:21.032Z,20.45
2023-05-12T19:21:49.210Z,20.43
2023-05-12T19:24:17.036Z,20.44
2023-05-12T19:26:45.363Z,20.40
2023-05-12T19:29:13.466Z,20.50
2023-05-12T19:31:41.637Z,20.33
2023-05-12T19:34:09.655Z,19.88
2023-05-12T19:36:37.925Z,20.00
2023-05-12T19:39:05.721Z,20.04
2023-05-12T19:41:33.967Z,20.04
2023-05-12T19:44:01.861Z,19.92
2023-05-12T19:46:30.006Z,20.06
2023-05-12T19:48:57.872Z,19.74
2023-05-12T19:51:26.169Z,19.62
2023-05-12T19:53:54.085Z,19.75
2023-05-12T19:56:22.551Z,19.75
2023-05-12T19:58:50.649Z,19.64
2023-05-12T20:01:19.218Z,19.78
2023-05-12T20:03:47.197Z,19.69
2023-05-12T20:06:15.511Z,19.84
2023-05-12T20:08:43.508Z,19.82
2023-05-12T20:11:12.068Z,19.76
2023-05-12T20:13:39.877Z,19.68
2023-05-12T20:16:08.189Z,19.93
2023-05-12T20:18:35.976Z,19.86
2023-05-12T20:21:04.152Z,19.40
2023-05-12T20:23:32.343Z,19.93
2023-05-12T20:26:00.499Z,19.76
2023-05-12T20:28:29.419Z,19.78
2023-05-12T20:30:57.550Z,19.80
2023-05-12T20:33:25.447Z,19.87
2023-05-12T20:35:53.876Z,19.67
2023-05-12T20:38:21.692Z,19.68
2023-05-12T20:40:49.847Z,19.92
2023-05-12T20:43:17.720Z,19.68
2023-05-12T20:45:45.996Z,19.68
2023-05-12T20:48:15.015Z,19.44
2023-05-12T20:50:45.579Z,19.48
2023-05-12T20:53:13.357Z,19.36
2023-05-12T20:55:43.297Z,19.10
2023-05-12T20:58:11.432Z,18.86
2023-05-12T21:00:39.827Z,18.66
2023-05-12T21:03:11.033Z,18.71
2023-05-12T21:05:39.662Z,18.94
2023-05-12T21:08:07.979Z,18.78
2023-05-12T21:10:39.565Z,18.71
2023-05-12T21:13:07.441Z,18.65
2023-05-12T21:15:36.133Z,18.57
2023-05-12T21:18:04.219Z,18.73
2023-05-12T21:20:32.656Z,18.63
2023-05-12T21:23:00.711Z,18.80
2023-05-12T21:25:29.149Z,18.20
2023-05-12T21:27:57.324Z,18.44
2023-05-12T21:30:25.668Z,18.24
2023-05-12T21:32:53.665Z,18.10
2023-05-12T21:35:21.808Z,18.11
2023-05-12T21:37:50.169Z,18.11
2023-05-12T21:40:18.601Z,18.35
2023-05-12T21:42:46.977Z,18.41
2023-05-12T21:45:15.901Z,18.02
2023-05-12T21:47:43.881Z,18.15
2023-05-12T21:50:12.476Z,18.28
2023-05-12T21:52:40.483Z,18.02
2023-05-12T21:55:09.445Z,17.61
2023-05-12T21:57:37.234Z,17.47
2023-05-12T22:00:07.619Z,17.82
2023-05-12T22:02:38.689Z,17.83
2023-05-12T22:05:08.079Z,17.57
2023-05-12T22:07:35.990Z,17.35
2023-05-12T22:10:04.890Z,17.64
2023-05-12T22:12:32.862Z,17.60
2023-05-12T22:15:01.397Z,17.71
2023-05-12T22:17:29.510Z,17.75
2023-05-12T22:19:57.600Z,17.79
2023-05-12T22:22:25.553Z,18.07
2023-05-12T22:24:54.100Z,18.09
2023-05-12T22:27:22.782Z,18.42
2023-05-12T22:29:51.022Z,18.62
2023-05-12T22:32:18.843Z,18.56
2023-05-12T22:34:47.248Z,18.49
2023-05-12T22:37:15.314Z,18.82
2023-05-12T22:39:43.523Z,18.77
2023-05-12T22:42:11.517Z,18.87
2023-05-12T22:44:39.707Z,18.97
2023-05-12T22:47:07.771Z,18.95
2023-05-12T22:49:36.204Z,18.86
2023-05-12T22:52:06.090Z,18.93
2023-05-12T22:54:34.613Z,18.72
2023-05-12T22:57:02.554Z,18.82
2023-05-12T22:59:31.331Z,18.92
2023-05-12T23:01:59.116Z,18.75
2023-05-12T23:04:27.360Z,18.82
2023-05-12T23:06:55.391Z,18.86
2023-05-12T23:09:23.553Z,19.01
2023-05-12T23:11:51.559Z,18.84
2023-05-12T23:14:19.727Z,18.90
2023-05-12T23:16:48.354Z,18.82
2023-05-12T23:19:16.640Z,18.84
2023-05-12T23:21:44.601Z,19.03
2023-05-12T23:24:12.679Z,19.04
2023-05-12T23:26:40.717Z,18.90
2023-05-12T23:29:08.815Z,18.70
2023-05-12T23:31:36.754Z,18.51
2023-05-12T23:34:05.200Z,18.38
2023-05-12T23:36:33.146Z,18.47
2023-05-12T23:39:01.396Z,18.42
2023-05-12T23:41:32.094Z,18.26
2023-05-12T23:44:00.210Z,17.90
2023-05-12T23:46:28.133Z,17.34
2023-05-12T23:48:56.778Z,17.35
2023-05-12T23:51:24.716Z,17.10
2023-05-12T23:53:52.824Z,16.84
2023-05-12T23:56:21.827Z,17.29
2023-05-12T23:58:50.210Z,17.68
